createdAt,value
2019-03-24T00:01:58.592Z,41.60
2019-03-24T00:04:28.178Z,41.60
2019-03-24T00:06:56.633Z,41.70
2019-03-24T00:09:25.038Z,41.80
2019-03-24T00:11:53.534Z,41.60
2019-03-24T00:14:21.921Z,41.60
2019-03-24T00:16:50.383Z,41.60
2019-03-24T00:19:18.881Z,41.70
2019-03-24T00:21:47.276Z,41.80
2019-03-24T00:24:15.694Z,41.90
2019-03-24T00:26:44.242Z,42.50
2019-03-24T00:29:12.600Z,42.00
2019-03-24T00:31:41.036Z,42.10
2019-03-24T00:34:09.420Z,42.20
2019-03-24T00:36:37.710Z,42.40
2019-03-24T00:39:07.132Z,42.40
2019-03-24T00:41:35.574Z,43.00
2019-03-24T00:44:04.034Z,43.00
2019-03-24T00:46:32.559Z,42.60
2019-03-24T00:49:00.962Z,42.50
2019-03-24T00:51:29.333Z,42.50
2019-03-24T00:53:57.869Z,42.70
2019-03-24T00:56:26.556Z,42.70
2019-03-24T00:58:55.016Z,42.70
2019-03-24T01:01:24.540Z,42.70
2019-03-24T01:03:52.904Z,42.80
2019-03-24T01:06:21.449Z,42.70
2019-03-24T01:08:51.035Z,42.70
2019-03-24T01:11:19.486Z,42.50
2019-03-24T01:13:47.921Z,42.70
2019-03-24T01:16:16.397Z,42.60
2019-03-24T01:18:44.912Z,42.60
2019-03-24T01:21:13.361Z,42.60
2019-03-24T01:23:41.816Z,42.60
2019-03-24T01:26:10.286Z,42.70
2019-03-24T01:28:39.850Z,42.60
2019-03-24T01:31:08.312Z,42.50
2019-03-24T01:33:36.681Z,42.40
2019-03-24T01:36:05.199Z,42.30
2019-03-24T01:38:33.606Z,42.30
2019-03-24T01:41:02.029Z,42.50
2019-03-24T01:43:30.549Z,42.70
2019-03-24T01:45:59.106Z,42.80
2019-03-24T01:48:27.526Z,43.00
2019-03-24T01:50:55.973Z,43.10
2019-03-24T01:53:24.456Z,43.10
2019-03-24T01:55:52.821Z,43.80
2019-03-24T01:58:21.277Z,43.20
2019-03-24T02:00:49.639Z,43.20
2019-03-24T02:03:18.068Z,43.30
2019-03-24T02:05:46.516Z,43.20
2019-03-24T02:08:14.889Z,43.50
2019-03-24T02:10:43.422Z,43.90
2019-03-24T02:13:11.847Z,43.40
2019-03-24T02:15:40.217Z,43.40
2019-03-24T02:18:09.763Z,43.50
2019-03-24T02:20:38.244Z,43.60
2019-03-24T02:23:06.681Z,43.70
2019-03-24T02:25:35.209Z,43.70
2019-03-24T02:28:03.677Z,43.70
2019-03-24T02:30:32.142Z,44.40
2019-03-24T02:33:00.685Z,43.80
2019-03-24T02:35:29.119Z,43.70
2019-03-24T02:37:57.472Z,44.00
2019-03-24T02:40:25.849Z,43.90
2019-03-24T02:42:54.327Z,44.00
2019-03-24T02:45:22.738Z,44.10
2019-03-24T02:47:51.310Z,44.20
2019-03-24T02:50:19.845Z,44.30
2019-03-24T02:52:48.274Z,44.30
2019-03-24T02:55:16.781Z,44.30
2019-03-24T02:57:45.227Z,44.30
2019-03-24T03:00:13.795Z,44.30
2019-03-24T03:03:01.727Z,44.40
2019-03-24T03:05:30.234Z,44.50
2019-03-24T03:07:58.662Z,44.70
2019-03-24T03:10:27.042Z,44.90
2019-03-24T03:12:55.537Z,45.00
2019-03-24T03:15:24.015Z,45.20
2019-03-24T03:17:52.437Z,45.20
2019-03-24T03:20:20.841Z,45.30
2019-03-24T03:22:49.349Z,45.30
2019-03-24T03:25:17.743Z,45.30
2019-03-24T03:27:46.205Z,45.40
2019-03-24T03:30:14.638Z,45.60
2019-03-24T03:32:43.074Z,45.70
2019-03-24T03:35:11.595Z,46.10
2019-03-24T03:37:40.141Z,46.30
2019-03-24T03:40:08.630Z,46.50
2019-03-24T03:42:38.729Z,46.80
2019-03-24T03:45:08.931Z,47.60
2019-03-24T03:47:37.396Z,47.20
2019-03-24T03:50:06.435Z,47.50
2019-03-24T03:52:34.880Z,47.60
2019-03-24T03:55:03.699Z,47.80
2019-03-24T03:57:32.095Z,47.80
2019-03-24T04:00:00.541Z,47.90
2019-03-24T04:02:29.102Z,48.00
2019-03-24T04:04:57.577Z,48.10
2019-03-24T04:07:26.065Z,48.10
2019-03-24T04:09:54.480Z,48.10
2019-03-24T04:12:22.846Z,48.20
2019-03-24T04:14:51.297Z,48.10
2019-03-24T04:17:19.774Z,48.20
2019-03-24T04:19:48.244Z,48.20
2019-03-24T04:22:16.687Z,48.10
2019-03-24T04:24:45.216Z,48.20
2019-03-24T04:27:13.586Z,48.20
2019-03-24T04:29:41.951Z,48.40
2019-03-24T04:32:10.501Z,48.50
2019-03-24T04:34:38.958Z,48.60
2019-03-24T04:37:07.364Z,48.60
2019-03-24T04:39:35.759Z,48.70
2019-03-24T04:42:04.158Z,48.70
2019-03-24T04:44:32.640Z,48.70
2019-03-24T04:47:01.012Z,48.90
2019-03-24T04:49:29.534Z,49.20
2019-03-24T04:51:57.941Z,49.50
2019-03-24T04:54:26.377Z,49.80
2019-03-24T04:56:54.746Z,50.10
2019-03-24T04:59:24.387Z,50.40
2019-03-24T05:01:52.881Z,50.50
2019-03-24T05:04:21.286Z,50.80
2019-03-24T05:06:49.775Z,51.00
2019-03-24T05:09:18.178Z,51.30
2019-03-24T05:11:46.557Z,51.60
2019-03-24T05:14:15.108Z,51.80
2019-03-24T05:16:43.531Z,52.00
2019-03-24T05:19:11.854Z,52.10
2019-03-24T05:21:40.253Z,52.80
2019-03-24T05:24:08.730Z,52.20
2019-03-24T05:26:37.193Z,52.10
2019-03-24T05:29:05.497Z,51.90
2019-03-24T05:31:33.950Z,51.80
2019-03-24T05:34:02.448Z,51.80
2019-03-24T05:36:31.061Z,51.80
2019-03-24T05:38:59.865Z,51.50
2019-03-24T05:41:28.325Z,51.50
2019-03-24T05:43:56.864Z,51.40
2019-03-24T05:46:25.300Z,51.30
2019-03-24T05:48:53.703Z,51.20
2019-03-24T05:51:22.182Z,51.30
2019-03-24T05:53:50.663Z,51.30
2019-03-24T05:56:19.986Z,51.60
2019-03-24T05:58:48.573Z,51.70
2019-03-24T06:01:17.007Z,51.90
2019-03-24T06:03:45.482Z,52.10
2019-03-24T06:06:13.996Z,52.10
2019-03-24T06:08:42.393Z,52.00
2019-03-24T06:11:10.866Z,52.10
2019-03-24T06:13:39.288Z,52.10
2019-03-24T06:16:07.604Z,52.10
2019-03-24T06:18:35.981Z,52.60
2019-03-24T06:21:04.510Z,51.90
2019-03-24T06:23:32.880Z,51.70
2019-03-24T06:26:01.262Z,51.10
2019-03-24T06:28:29.767Z,51.10
2019-03-24T06:30:58.336Z,51.20
2019-03-24T06:33:26.658Z,51.30
2019-03-24T06:35:55.153Z,50.70
2019-03-24T06:38:23.682Z,50.40
2019-03-24T06:40:52.153Z,50.20
2019-03-24T06:43:20.507Z,50.10
2019-03-24T06:45:49.035Z,50.00
2019-03-24T06:48:17.466Z,50.00
2019-03-24T06:50:46.087Z,49.80
2019-03-24T06:53:14.632Z,49.70
2019-03-24T06:55:43.083Z,49.60
2019-03-24T06:58:11.488Z,49.50
2019-03-24T07:00:39.893Z,49.50
2019-03-24T07:03:08.346Z,49.60
2019-03-24T07:05:36.723Z,49.50
2019-03-24T07:08:05.179Z,49.50
2019-03-24T07:10:33.885Z,49.40
2019-03-24T07:13:02.281Z,49.30
2019-03-24T07:15:30.605Z,49.40
2019-03-24T07:18:08.161Z,49.20
2019-03-24T07:20:29.131Z,49.10
2019-03-24T07:22:57.456Z,49.00
2019-03-24T07:25:25.913Z,48.80
2019-03-24T07:27:54.472Z,48.60
2019-03-24T07:30:22.951Z,48.40
2019-03-24T07:32:51.414Z,48.40
2019-03-24T07:35:19.906Z,48.30
2019-03-24T07:37:48.234Z,48.40
2019-03-24T07:40:16.620Z,48.10
2019-03-24T07:42:45.104Z,47.80
2019-03-24T07:45:14.833Z,47.30
2019-03-24T07:47:43.289Z,46.90
2019-03-24T07:50:11.824Z,46.90
2019-03-24T07:52:40.325Z,46.80
2019-03-24T07:55:08.620Z,46.70
2019-03-24T07:57:37.093Z,46.80
2019-03-24T08:00:07.182Z,46.80
2019-03-24T08:02:35.547Z,46.90
2019-03-24T08:05:04.859Z,47.00
2019-03-24T08:07:33.276Z,46.70
2019-03-24T08:10:01.795Z,46.50
2019-03-24T08:12:30.256Z,45.90
2019-03-24T08:14:59.995Z,45.20
2019-03-24T08:17:28.709Z,45.20
2019-03-24T08:19:57.068Z,45.10
2019-03-24T08:22:25.536Z,44.90
2019-03-24T08:24:53.941Z,44.70
2019-03-24T08:27:22.302Z,44.10
2019-03-24T08:29:51.853Z,43.80
2019-03-24T08:32:20.226Z,43.60
2019-03-24T08:34:48.640Z,43.50
2019-03-24T08:37:36.537Z,43.40
2019-03-24T08:40:07.333Z,43.40
2019-03-24T08:42:35.806Z,43.60
2019-03-24T08:45:05.005Z,43.50
2019-03-24T08:47:33.564Z,43.40
2019-03-24T08:50:02.021Z,43.00
2019-03-24T08:52:30.471Z,43.20
2019-03-24T08:55:00.065Z,43.30
2019-03-24T08:57:28.488Z,43.00
2019-03-24T08:59:56.944Z,42.80
2019-03-24T09:02:25.341Z,42.70
2019-03-24T09:04:53.827Z,42.30
2019-03-24T09:07:22.399Z,42.20
2019-03-24T09:09:50.768Z,42.10
2019-03-24T09:12:19.233Z,41.80
2019-03-24T09:14:47.665Z,41.30
2019-03-24T09:17:15.962Z,41.10
2019-03-24T09:19:44.438Z,41.10
2019-03-24T09:22:12.939Z,41.00
2019-03-24T09:24:41.306Z,41.10
2019-03-24T09:27:09.843Z,41.10
2019-03-24T09:29:38.322Z,41.70
2019-03-24T09:32:06.880Z,41.60
2019-03-24T09:34:35.249Z,41.40
2019-03-24T09:37:03.691Z,41.60
2019-03-24T09:39:32.287Z,41.80
2019-03-24T09:42:00.691Z,41.50
2019-03-24T09:44:29.038Z,41.70
2019-03-24T09:46:57.492Z,41.50
2019-03-24T09:49:25.856Z,41.30
2019-03-24T09:51:54.276Z,41.40
2019-03-24T09:54:22.715Z,41.30
2019-03-24T09:56:51.060Z,40.80
2019-03-24T09:59:19.501Z,39.90
2019-03-24T10:01:47.843Z,40.00
2019-03-24T10:04:16.344Z,40.20
2019-03-24T10:06:44.704Z,39.60
2019-03-24T10:09:13.043Z,39.10
2019-03-24T10:11:41.579Z,38.20
2019-03-24T10:14:10.007Z,38.00
2019-03-24T10:16:38.410Z,37.70
2019-03-24T10:19:14.086Z,38.20
2019-03-24T10:21:37.042Z,38.50
2019-03-24T10:24:07.835Z,38.70
2019-03-24T10:26:35.640Z,39.20
2019-03-24T10:29:04.094Z,38.60
2019-03-24T10:31:32.507Z,38.30
2019-03-24T10:34:00.937Z,38.60
2019-03-24T10:36:29.447Z,38.00
2019-03-24T10:38:57.960Z,37.50
2019-03-24T10:41:26.493Z,36.90
2019-03-24T10:43:54.943Z,36.80
2019-03-24T10:46:23.389Z,37.10
2019-03-24T10:48:51.885Z,37.60
2019-03-24T10:51:20.355Z,37.40
2019-03-24T10:53:48.890Z,37.10
2019-03-24T10:56:17.339Z,36.50
2019-03-24T10:58:45.739Z,36.40
2019-03-24T11:01:14.433Z,36.40
2019-03-24T11:03:42.846Z,36.10
2019-03-24T11:06:11.288Z,36.00
2019-03-24T11:08:39.814Z,36.00
2019-03-24T11:11:08.177Z,36.20
2019-03-24T11:13:36.557Z,36.10
2019-03-24T11:16:05.031Z,35.80
2019-03-24T11:18:33.485Z,35.20
2019-03-24T11:21:01.917Z,34.80
2019-03-24T11:23:30.338Z,34.20
2019-03-24T11:25:58.775Z,33.60
2019-03-24T11:28:27.202Z,33.40
2019-03-24T11:30:55.541Z,32.80
2019-03-24T11:33:23.997Z,32.80
2019-03-24T11:35:52.413Z,32.70
2019-03-24T11:38:20.911Z,31.70
2019-03-24T11:40:49.267Z,31.70
2019-03-24T11:43:17.728Z,32.00
2019-03-24T11:45:47.290Z,32.40
2019-03-24T11:48:15.728Z,32.20
2019-03-24T11:50:44.132Z,31.20
2019-03-24T11:53:12.604Z,31.10
2019-03-24T11:55:41.067Z,30.80
2019-03-24T11:58:09.448Z,30.70
2019-03-24T12:00:38.514Z,31.20
2019-03-24T12:03:06.953Z,31.50
2019-03-24T12:05:35.333Z,31.30
2019-03-24T12:08:04.242Z,31.30
2019-03-24T12:10:32.711Z,30.70
2019-03-24T12:13:01.096Z,30.30
2019-03-24T12:15:29.563Z,30.80
2019-03-24T12:17:58.161Z,30.30
2019-03-24T12:20:26.536Z,30.80
2019-03-24T12:22:54.857Z,30.40
2019-03-24T12:25:23.254Z,29.80
2019-03-24T12:27:51.785Z,29.40
2019-03-24T12:30:20.242Z,28.60
2019-03-24T12:32:48.774Z,28.50
2019-03-24T12:35:17.144Z,28.90
2019-03-24T12:37:45.687Z,29.20
2019-03-24T12:40:14.222Z,28.60
2019-03-24T12:42:42.577Z,28.50
2019-03-24T12:45:10.984Z,28.10
2019-03-24T12:47:39.631Z,27.90
2019-03-24T12:50:10.022Z,27.60
2019-03-24T12:52:38.729Z,27.10
2019-03-24T12:55:07.163Z,26.60
2019-03-24T12:57:35.694Z,25.90
2019-03-24T13:00:07.858Z,25.30
2019-03-24T13:02:36.245Z,24.90
2019-03-24T13:05:09.370Z,24.60
2019-03-24T13:07:37.855Z,24.30
2019-03-24T13:10:07.416Z,24.10
2019-03-24T13:12:35.934Z,23.30
2019-03-24T13:15:06.697Z,23.40
2019-03-24T13:17:35.052Z,23.30
2019-03-24T13:20:05.805Z,23.30
2019-03-24T13:22:34.203Z,22.80
2019-03-24T13:25:02.903Z,22.20
2019-03-24T13:27:31.600Z,22.20
2019-03-24T13:30:00.339Z,21.90
2019-03-24T13:32:29.026Z,21.80
2019-03-24T13:34:57.511Z,21.50
2019-03-24T13:37:25.979Z,21.50
2019-03-24T13:39:54.447Z,21.70
2019-03-24T13:42:22.979Z,21.60
2019-03-24T13:44:51.409Z,21.60
2019-03-24T13:47:19.737Z,21.30
2019-03-24T13:49:48.269Z,20.70
2019-03-24T13:52:16.738Z,20.50
2019-03-24T13:54:45.227Z,20.50
2019-03-24T13:57:14.803Z,20.40
2019-03-24T13:59:43.257Z,20.20
2019-03-24T14:02:11.766Z,20.10
2019-03-24T14:04:40.211Z,20.10
2019-03-24T14:07:08.612Z,20.10
2019-03-24T14:09:37.049Z,19.80
2019-03-24T14:12:06.140Z,19.80
2019-03-24T14:14:34.556Z,19.90
2019-03-24T14:17:03.009Z,19.70
2019-03-24T14:19:31.432Z,19.80
2019-03-24T14:21:59.738Z,20.20
2019-03-24T14:24:28.106Z,19.50
2019-03-24T14:26:56.581Z,19.60
2019-03-24T14:29:27.083Z,19.50
2019-03-24T14:31:55.108Z,20.00
2019-03-24T14:34:23.632Z,20.40
2019-03-24T14:36:52.065Z,20.50
2019-03-24T14:39:20.368Z,20.40
2019-03-24T14:41:48.837Z,20.00
2019-03-24T14:44:17.330Z,20.00
2019-03-24T14:46:45.710Z,20.20
2019-03-24T14:49:14.191Z,20.80
2019-03-24T14:51:42.676Z,20.40
2019-03-24T14:54:11.110Z,20.30
2019-03-24T14:56:39.492Z,20.20
2019-03-24T14:59:07.940Z,20.50
2019-03-24T15:01:36.349Z,19.70
2019-03-24T15:04:04.813Z,20.10
2019-03-24T15:06:33.249Z,20.40
2019-03-24T15:09:01.646Z,20.50
2019-03-24T15:11:30.183Z,20.20
2019-03-24T15:13:58.615Z,19.90
2019-03-24T15:16:27.087Z,19.70
2019-03-24T15:18:56.568Z,19.50
2019-03-24T15:21:25.009Z,19.60
2019-03-24T15:23:53.401Z,19.90
2019-03-24T15:26:21.883Z,20.20
2019-03-24T15:28:50.211Z,20.00
2019-03-24T15:31:18.648Z,19.50
2019-03-24T15:33:47.076Z,19.30
2019-03-24T15:36:15.459Z,19.30
2019-03-24T15:38:43.920Z,19.00
2019-03-24T15:41:12.449Z,19.30
2019-03-24T15:43:41.204Z,19.60
2019-03-24T15:46:09.670Z,19.20
2019-03-24T15:48:38.190Z,19.50
2019-03-24T15:51:16.307Z,19.00
2019-03-24T15:53:36.730Z,18.70
2019-03-24T15:56:05.181Z,18.80
2019-03-24T15:58:33.658Z,18.80
2019-03-24T16:01:02.062Z,18.50
2019-03-24T16:03:30.460Z,18.60
2019-03-24T16:05:58.860Z,18.90
2019-03-24T16:08:27.249Z,18.50
2019-03-24T16:10:55.712Z,18.60
2019-03-24T16:13:24.061Z,18.50
2019-03-24T16:15:52.552Z,18.50
2019-03-24T16:18:21.004Z,18.40
2019-03-24T16:20:49.479Z,18.50
2019-03-24T16:23:17.961Z,18.80
2019-03-24T16:25:46.403Z,18.40
2019-03-24T16:28:14.788Z,18.60
2019-03-24T16:30:43.217Z,18.90
2019-03-24T16:33:11.609Z,19.00
2019-03-24T16:35:40.012Z,18.80
2019-03-24T16:38:08.381Z,19.00
2019-03-24T16:40:36.806Z,19.10
2019-03-24T16:43:05.314Z,19.10
2019-03-24T16:45:33.767Z,19.30
2019-03-24T16:48:02.253Z,19.50
2019-03-24T16:50:31.056Z,19.50
2019-03-24T16:52:59.529Z,19.60
2019-03-24T16:55:27.951Z,19.50
2019-03-24T16:57:56.433Z,19.70
2019-03-24T17:00:24.805Z,20.10
2019-03-24T17:02:53.232Z,20.40
2019-03-24T17:05:21.711Z,20.60
2019-03-24T17:07:50.113Z,20.90
2019-03-24T17:10:18.541Z,21.00
2019-03-24T17:12:47.100Z,21.00
2019-03-24T17:15:15.522Z,21.00
2019-03-24T17:17:43.831Z,21.00
2019-03-24T17:20:12.409Z,21.50
2019-03-24T17:22:40.838Z,21.20
2019-03-24T17:25:09.354Z,21.40
2019-03-24T17:27:37.921Z,21.80
2019-03-24T17:30:10.816Z,22.30
2019-03-24T17:32:39.141Z,22.70
2019-03-24T17:35:07.791Z,22.70
2019-03-24T17:37:36.340Z,23.30
2019-03-24T17:40:07.476Z,23.60
2019-03-24T17:42:35.977Z,23.90
2019-03-24T17:45:07.820Z,24.10
2019-03-24T17:47:36.245Z,24.20
2019-03-24T17:50:06.162Z,24.60
2019-03-24T17:52:34.646Z,24.80
2019-03-24T17:55:03.065Z,25.00
2019-03-24T17:57:31.573Z,25.20
2019-03-24T17:59:59.993Z,25.40
2019-03-24T18:02:28.450Z,25.50
2019-03-24T18:04:56.942Z,25.60
2019-03-24T18:07:25.350Z,25.70
2019-03-24T18:09:53.861Z,25.80
2019-03-24T18:12:22.286Z,26.00
2019-03-24T18:14:50.781Z,26.10
2019-03-24T18:17:19.252Z,26.20
2019-03-24T18:19:47.818Z,26.30
2019-03-24T18:22:16.293Z,26.40
2019-03-24T18:24:44.754Z,26.60
2019-03-24T18:27:13.293Z,26.70
2019-03-24T18:29:47.649Z,26.90
2019-03-24T18:32:16.240Z,27.00
2019-03-24T18:34:44.604Z,27.30
2019-03-24T18:37:32.495Z,27.30
2019-03-24T18:40:00.926Z,27.40
2019-03-24T18:42:29.448Z,27.60
2019-03-24T18:44:57.955Z,27.70
2019-03-24T18:47:26.413Z,27.90
2019-03-24T18:49:54.931Z,28.10
2019-03-24T18:52:23.482Z,28.40
2019-03-24T18:54:52.116Z,28.40
2019-03-24T18:57:20.625Z,28.50
2019-03-24T18:59:49.185Z,28.70
2019-03-24T19:02:17.617Z,28.60
2019-03-24T19:04:46.123Z,28.70
2019-03-24T19:07:14.546Z,28.80
2019-03-24T19:09:42.982Z,29.00
2019-03-24T19:12:12.500Z,29.30
2019-03-24T19:14:41.273Z,29.80
2019-03-24T19:17:10.216Z,30.10
2019-03-24T19:19:38.773Z,30.40
2019-03-24T19:22:07.322Z,30.50
2019-03-24T19:24:35.798Z,31.30
2019-03-24T19:27:04.258Z,31.90
2019-03-24T19:29:32.802Z,32.40
2019-03-24T19:32:01.343Z,32.60
2019-03-24T19:34:29.824Z,32.90
2019-03-24T19:36:58.289Z,33.10
2019-03-24T19:39:27.145Z,33.40
2019-03-24T19:41:55.730Z,33.80
2019-03-24T19:44:24.210Z,34.00
2019-03-24T19:46:52.562Z,34.20
2019-03-24T19:49:22.152Z,34.40
2019-03-24T19:51:50.541Z,34.50
2019-03-24T19:54:19.057Z,34.60
2019-03-24T19:56:47.612Z,34.80
2019-03-24T19:59:15.993Z,34.80
2019-03-24T20:01:44.494Z,34.90
2019-03-24T20:04:12.973Z,35.00
2019-03-24T20:06:41.422Z,35.10
2019-03-24T20:09:09.911Z,35.30
2019-03-24T20:11:38.506Z,35.40
2019-03-24T20:14:06.859Z,35.60
2019-03-24T20:16:35.303Z,35.80
2019-03-24T20:19:03.753Z,35.90
2019-03-24T20:21:32.204Z,36.00
2019-03-24T20:24:00.541Z,36.70
2019-03-24T20:26:29.244Z,36.20
2019-03-24T20:28:57.860Z,36.30
2019-03-24T20:31:26.438Z,36.30
2019-03-24T20:33:55.136Z,36.40
2019-03-24T20:36:23.698Z,36.40
2019-03-24T20:38:52.209Z,36.50
2019-03-24T20:41:20.629Z,36.60
2019-03-24T20:43:49.015Z,36.70
2019-03-24T20:46:17.421Z,36.80
2019-03-24T20:48:45.973Z,37.50
2019-03-24T20:51:15.546Z,36.90
2019-03-24T20:53:44.766Z,36.90
2019-03-24T20:56:14.156Z,37.00
2019-03-24T20:58:42.769Z,37.20
2019-03-24T21:01:11.362Z,37.20
2019-03-24T21:03:39.957Z,37.10
2019-03-24T21:06:08.422Z,37.20
2019-03-24T21:08:37.007Z,37.10
2019-03-24T21:11:06.241Z,37.20
2019-03-24T21:13:35.096Z,37.30
2019-03-24T21:16:03.891Z,37.50
2019-03-24T21:18:33.246Z,37.60
2019-03-24T21:21:02.388Z,37.60
2019-03-24T21:23:31.175Z,38.20
2019-03-24T21:25:59.868Z,37.40
2019-03-24T21:28:28.562Z,37.30
2019-03-24T21:30:57.452Z,37.60
2019-03-24T21:33:27.745Z,37.60
2019-03-24T21:35:56.615Z,37.70
2019-03-24T21:38:25.961Z,37.90
2019-03-24T21:40:54.594Z,38.00
2019-03-24T21:43:23.061Z,37.30
2019-03-24T21:45:51.492Z,37.00
2019-03-24T21:48:20.046Z,37.00
2019-03-24T21:50:48.427Z,37.00
2019-03-24T21:53:16.791Z,36.90
2019-03-24T21:55:46.388Z,36.60
2019-03-24T21:58:14.769Z,36.10
2019-03-24T22:00:43.189Z,35.50
2019-03-24T22:03:11.820Z,34.90
2019-03-24T22:05:40.253Z,34.40
2019-03-24T22:08:08.650Z,34.40
2019-03-24T22:10:37.167Z,34.10
2019-03-24T22:13:05.639Z,33.70
2019-03-24T22:15:34.051Z,33.30
2019-03-24T22:18:02.584Z,33.20
2019-03-24T22:20:30.966Z,32.80
2019-03-24T22:22:59.429Z,32.40
2019-03-24T22:25:27.899Z,32.30
2019-03-24T22:27:56.364Z,32.00
2019-03-24T22:30:24.834Z,32.00
2019-03-24T22:32:53.424Z,31.80
2019-03-24T22:35:21.832Z,31.70
2019-03-24T22:37:50.270Z,32.20
2019-03-24T22:40:18.784Z,31.70
2019-03-24T22:42:47.108Z,31.70
2019-03-24T22:45:15.580Z,32.40
2019-03-24T22:47:44.100Z,31.80
2019-03-24T22:50:13.027Z,31.80
2019-03-24T22:52:41.396Z,31.80
2019-03-24T22:55:29.322Z,32.00
2019-03-24T22:57:57.787Z,31.90
2019-03-24T23:00:42.973Z,31.80
2019-03-24T23:03:11.465Z,31.60
2019-03-24T23:05:40.107Z,31.50
2019-03-24T23:08:08.539Z,31.50
2019-03-24T23:10:36.933Z,31.50
2019-03-24T23:13:05.362Z,31.50
2019-03-24T23:15:33.761Z,31.20
2019-03-24T23:18:02.185Z,31.10
2019-03-24T23:20:30.752Z,31.20
2019-03-24T23:22:59.190Z,31.20
2019-03-24T23:25:27.627Z,31.40
2019-03-24T23:27:56.157Z,31.30
2019-03-24T23:30:24.600Z,31.30
2019-03-24T23:32:52.980Z,31.30
2019-03-24T23:35:21.436Z,31.40
2019-03-24T23:37:50.000Z,31.60
2019-03-24T23:40:18.314Z,31.80
2019-03-24T23:42:46.849Z,31.90
2019-03-24T23:45:15.382Z,32.00
2019-03-24T23:47:43.832Z,32.10
2019-03-24T23:50:12.251Z,32.30
2019-03-24T23:52:40.741Z,32.30
2019-03-24T23:55:09.205Z,32.50
2019-03-24T23:57:37.606Z,32.70
